Time;durP1;ratioP1;P1;durP2;ratioP2;P2;SDS_P1;SDS_P2;PMS_P1;PMS_P2;Temp;Humidity;BMP_temperature;BMP_pressure;BME280_temperature;BME280_humidity;BME280_pressure;Samples;Min_cycle;Max_cycle;Signal;HPM_P1;HPM_P2
2021/06/02 00:02:59;;;;;;;5.38;3.65;;;19.60;99.90;;;19.43;84.98;100543.81;4118392;28;20066;-66
2021/06/02 00:05:03;;;;;;;6.85;4.18;;;19.70;99.90;;;19.41;85.14;100541.38;4119191;28;20046;-66
2021/06/02 00:11:12;;;;;;;7.55;3.58;;;19.70;99.90;;;19.45;86.77;100547.91;4115033;28;20054;-66
2021/06/02 00:13:14;;;;;;;8.65;4.13;;;19.70;99.90;;;19.41;87.21;100541.38;4119696;28;20039;-66
2021/06/02 00:15:16;;;;;;;6.18;4.43;;;19.70;99.90;;;19.38;87.95;100540.97;4118662;28;20046;-66
2021/06/02 00:17:17;;;;;;;5.85;3.83;;;19.60;99.90;;;19.34;88.90;100545.94;4118731;28;20027;-66
2021/06/02 00:19:18;;;;;;;6.03;4.07;;;19.60;99.90;;;19.24;90.07;100540.22;4119724;28;20054;-66
2021/06/02 00:21:19;;;;;;;6.38;3.88;;;19.50;99.90;;;19.17;91.02;100547.50;4119308;28;20098;-66
2021/06/02 00:23:21;;;;;;;5.00;3.55;;;19.50;99.90;;;19.10;91.73;100539.53;4119732;28;20486;-66
2021/06/02 00:25:22;;;;;;;5.65;3.80;;;19.40;99.90;;;19.07;92.26;100541.81;4119299;28;20019;-66
2021/06/02 00:27:24;;;;;;;5.70;4.05;;;19.40;99.90;;;19.02;92.70;100537.13;4119677;28;20510;-66
2021/06/02 00:29:32;;;;;;;5.00;3.72;;;19.30;99.90;;;18.96;93.39;100542.50;4118405;28;20023;-66
2021/06/02 00:31:36;;;;;;;6.88;3.60;;;19.30;99.90;;;18.87;94.10;100525.06;4118627;28;20027;-67
2021/06/02 00:33:37;;;;;;;6.15;4.15;;;19.20;99.90;;;18.86;94.61;100536.78;4118548;28;20441;-66
2021/06/02 00:35:41;;;;;;;6.35;4.25;;;19.10;99.90;;;18.88;94.70;100522.19;4118387;28;20078;-66
2021/06/02 00:37:42;;;;;;;7.13;4.43;;;19.10;99.90;;;18.86;94.72;100518.91;4119593;28;20066;-66
2021/06/02 00:39:51;;;;;;;9.60;5.18;;;19.10;99.90;;;18.72;95.18;100523.53;4119738;28;20038;-66
2021/06/02 00:41:53;;;;;;;9.55;4.03;;;19.10;99.90;;;18.71;96.00;100505.03;4118501;28;20025;-66
2021/06/02 00:43:55;;;;;;;7.97;4.25;;;19.00;99.90;;;18.68;96.42;100508.94;4119605;28;20034;-66
2021/06/02 00:45:56;;;;;;;7.57;3.67;;;19.00;99.90;;;18.63;96.89;100508.78;4118453;28;20121;-66
2021/06/02 00:48:00;;;;;;;7.85;4.65;;;18.90;99.90;;;18.59;97.00;100502.22;4118510;28;20364;-66
2021/06/02 00:50:01;;;;;;;10.43;4.60;;;18.90;99.90;;;18.55;96.97;100500.16;4119606;28;20513;-66
2021/06/02 00:52:07;;;;;;;5.88;4.07;;;18.90;99.90;;;18.59;97.42;100498.72;4118068;28;20042;-66
2021/06/02 00:54:08;;;;;;;6.28;4.20;;;18.80;99.90;;;18.57;96.91;100484.75;4119638;28;20091;-66
2021/06/02 00:56:12;;;;;;;6.00;3.88;;;18.90;99.90;;;18.55;97.16;100497.50;4119784;28;20045;-66
2021/06/02 00:58:29;;;;;;;8.63;4.65;;;18.80;99.90;;;18.51;97.67;100494.44;4119346;28;20038;-66
2021/06/02 01:00:30;;;;;;;8.68;4.30;;;18.80;99.90;;;18.48;97.78;100486.84;4119390;28;20110;-66
2021/06/02 01:02:34;;;;;;;7.65;4.07;;;18.70;99.90;;;18.40;97.99;100483.59;4119621;28;20145;-67
2021/06/02 01:04:34;;;;;;;8.98;4.15;;;18.70;99.90;;;18.27;98.36;100473.78;4118474;28;20055;-66
2021/06/02 01:06:39;;;;;;;5.72;3.80;;;18.70;99.90;;;18.31;98.65;100485.66;4117810;28;20049;-66
2021/06/02 01:08:44;;;;;;;9.45;4.13;;;18.60;99.90;;;18.37;98.07;100479.47;4119484;28;20034;-66
2021/06/02 01:10:45;;;;;;;5.95;4.35;;;18.60;99.90;;;18.32;97.93;100471.28;4118412;28;20070;-68
2021/06/02 01:12:50;;;;;;;11.77;5.05;;;18.60;99.90;;;18.32;98.20;100479.31;4118282;28;20037;-67
2021/06/02 01:14:54;;;;;;;7.22;4.25;;;18.60;99.90;;;18.29;98.50;100479.72;4119475;28;20038;-67
2021/06/02 01:16:56;;;;;;;9.48;4.68;;;18.50;99.90;;;18.24;98.63;100468.88;4119552;28;20106;-66
2021/06/02 01:18:58;;;;;;;9.13;4.60;;;18.50;99.90;;;18.29;98.75;100471.72;4118218;28;20043;-66
2021/06/02 01:21:01;;;;;;;8.07;4.68;;;18.50;99.90;;;18.30;98.86;100473.38;4119164;28;20027;-66
2021/06/02 01:23:02;;;;;;;7.45;4.68;;;18.50;99.90;;;18.23;99.03;100472.56;4119217;28;20553;-66
2021/06/02 01:25:08;;;;;;;7.63;4.63;;;18.50;99.90;;;18.25;99.24;100473.16;4118220;28;20015;-66
2021/06/02 01:27:12;;;;;;;9.18;5.43;;;18.50;99.90;;;18.24;99.00;100475.03;4134080;28;20030;-66
2021/06/02 01:29:13;;;;;;;8.35;5.40;;;18.50;99.90;;;18.24;98.93;100476.88;4119275;28;20078;-66
2021/06/02 01:31:42;;;;;;;9.65;5.03;;;18.50;99.90;;;18.23;98.76;100484.06;4119275;28;20085;-66
2021/06/02 01:34:12;;;;;;;11.00;5.72;;;18.50;99.90;;;18.21;98.84;100479.97;4119342;28;20030;-66
2021/06/02 01:36:40;;;;;;;9.23;5.18;;;18.50;99.90;;;18.24;98.88;100476.88;4119736;28;20082;-67
2021/06/02 01:39:33;;;;;;;12.00;5.57;;;18.50;99.90;;;18.23;99.03;100488.59;4120874;28;20035;-66
2021/06/02 01:42:20;;;;;;;9.93;5.10;;;18.40;99.90;;;18.25;99.25;100489.19;4118750;28;20465;-66
2021/06/02 01:44:46;;;;;;;7.38;4.72;;;18.40;99.90;;;18.21;99.09;100496.00;4113300;28;20506;-66
2021/06/02 01:47:18;;;;;;;8.50;4.80;;;18.50;99.90;;;18.20;99.13;100492.50;4122018;28;20460;-67
2021/06/02 01:49:49;;;;;;;6.50;4.68;;;18.50;99.90;;;18.18;99.46;100507.09;4121938;28;20029;-66
2021/06/02 01:52:27;;;;;;;9.57;5.55;;;18.50;99.90;;;18.18;99.40;100496.41;4121736;28;20031;-66
2021/06/02 01:55:23;;;;;;;8.00;4.82;;;18.40;99.90;;;18.19;99.30;100482.00;4121999;28;20023;-66
2021/06/02 01:58:12;;;;;;;;;;;18.50;99.90;;;18.20;99.21;100499.69;4121401;28;20027;-66
2021/06/02 02:01:00;;;;;;;5.88;4.25;;;18.50;99.90;;;18.20;99.31;100494.34;4091406;28;19914;-66
2021/06/02 02:03:41;;;;;;;7.70;4.60;;;18.50;99.90;;;18.23;99.27;100502.75;4120761;28;20158;-67
2021/06/02 02:06:24;;;;;;;5.30;4.28;;;18.50;99.90;;;18.24;99.44;100500.91;4121674;28;20031;-66
2021/06/02 02:08:41;;;;;;;7.13;4.80;;;18.50;99.90;;;18.20;99.35;100505.84;4121424;28;20035;-67
2021/06/02 02:10:58;;;;;;;9.80;5.35;;;18.50;99.90;;;18.22;99.53;100506.44;4112862;28;20022;-66
2021/06/02 02:13:49;;;;;;;5.43;4.80;;;18.50;99.90;;;18.23;99.27;100509.94;4120370;28;20030;-66
2021/06/02 02:16:17;;;;;;;7.70;5.05;;;18.50;99.90;;;18.24;99.18;100500.91;4121475;28;20105;-66
2021/06/02 02:18:40;;;;;;;10.57;5.10;;;18.50;99.90;;;18.24;99.21;100496.41;4121379;28;20070;-66
2021/06/02 02:21:05;;;;;;;7.38;4.60;;;18.40;99.90;;;18.22;99.23;100500.28;4120028;28;20026;-66
2021/06/02 02:23:24;;;;;;;7.50;5.03;;;18.50;99.90;;;18.28;98.99;100504.00;4121165;28;20031;-66
2021/06/02 02:25:38;;;;;;;6.80;4.60;;;18.40;99.90;;;18.28;98.69;100490.63;4120218;28;20027;-67
2021/06/02 02:28:16;;;;;;;8.65;4.63;;;18.50;99.90;;;18.14;98.85;100495.19;4121272;28;20509;-66
2021/06/02 02:30:40;;;;;;;6.57;4.65;;;18.40;99.90;;;18.13;99.37;100493.53;4121284;28;20031;-66
2021/06/02 02:32:48;;;;;;;7.22;5.03;;;18.40;99.90;;;18.15;99.18;100504.84;4121136;28;20441;-66
2021/06/02 02:34:56;;;;;;;10.02;5.60;;;18.40;99.90;;;18.24;98.68;100506.25;4120011;28;20535;-66
2021/06/02 02:37:13;;;;;;;10.25;4.30;;;18.40;99.90;;;18.21;98.77;100507.50;4121106;28;20042;-66
2021/06/02 02:39:32;;;;;;;6.93;5.28;;;18.40;99.90;;;18.13;99.03;100504.22;4119802;28;20034;-66
2021/06/02 02:42:12;;;;;;;7.38;5.18;;;18.30;99.90;;;18.08;98.94;100498.69;4121215;28;20030;-66
2021/06/02 02:44:40;;;;;;;10.40;5.20;;;18.30;99.90;;;18.08;98.90;100501.38;4121291;28;20046;-66
2021/06/02 02:47:35;;;;;;;8.45;5.25;;;18.30;99.90;;;18.07;98.75;100499.75;4120461;28;20402;-66
2021/06/02 02:50:12;;;;;;;8.02;5.03;;;18.20;99.90;;;18.04;98.92;100498.28;4120080;28;20074;-66
2021/06/02 02:52:43;;;;;;;8.30;4.93;;;18.20;99.90;;;18.02;99.15;100504.88;4120649;28;20039;-66
2021/06/02 02:55:13;;;;;;;6.88;4.63;;;18.20;99.90;;;17.91;99.31;100510.88;4120911;28;20050;-66
2021/06/02 02:57:51;;;;;;;7.65;5.20;;;18.10;99.90;;;17.77;99.14;100502.06;4119957;28;20031;-66
2021/06/02 03:00:18;;;;;;;7.75;4.97;;;18.10;99.90;;;17.75;99.69;100512.13;4119912;28;20088;-66
2021/06/02 03:03:02;;;;;;;8.98;5.30;;;18.00;99.90;;;17.72;99.42;100503.72;4120014;28;20031;-66
2021/06/02 03:05:11;;;;;;;7.10;4.82;;;17.90;99.90;;;17.68;99.42;100511.34;4120896;28;20038;-66
2021/06/02 03:07:14;;;;;;;9.10;5.20;;;17.80;99.90;;;17.63;99.57;100517.28;4119364;28;20553;-66
2021/06/02 03:09:49;;;;;;;6.85;5.45;;;17.80;99.90;;;17.47;99.80;100508.88;4119739;28;20053;-66
2021/06/02 03:12:45;;;;;;;9.13;5.17;;;17.70;99.90;;;17.40;100.00;100506.19;4119747;28;20122;-66
2021/06/02 03:15:23;;;;;;;6.07;4.90;;;17.70;99.90;;;17.36;100.00;100512.13;4120605;28;20054;-67
2021/06/02 03:17:58;;;;;;;8.45;5.63;;;17.60;99.90;;;17.33;100.00;100510.69;4120612;28;20485;-66
2021/06/02 03:20:05;;;;;;;9.93;6.05;;;17.50;99.90;;;17.30;100.00;100507.63;4120865;28;20046;-66
2021/06/02 03:22:14;;;;;;;9.13;5.68;;;17.50;99.90;;;17.27;100.00;100516.84;4120252;28;20027;-66
2021/06/02 03:24:57;;;;;;;6.75;5.50;;;17.50;99.90;;;17.19;100.00;100510.91;4107540;28;20039;-66
2021/06/02 03:27:28;;;;;;;7.72;5.28;;;17.40;99.90;;;17.19;100.00;100510.91;4104628;28;20082;-66
2021/06/02 03:29:54;;;;;;;7.07;5.93;;;17.40;99.90;;;17.14;100.00;100511.53;4103333;28;20031;-66
2021/06/02 03:32:52;;;;;;;8.77;5.50;;;17.40;99.90;;;17.15;100.00;100510.50;4103379;28;20023;-66
2021/06/02 03:35:23;;;;;;;6.32;5.05;;;17.30;99.90;;;17.03;100.00;100504.13;4104305;28;20028;-66
2021/06/02 03:38:01;;;;;;;10.55;6.13;;;17.30;99.90;;;17.01;100.00;100503.50;4102888;28;20038;-66
2021/06/02 03:40:18;;;;;;;6.05;5.10;;;17.20;99.90;;;17.02;100.00;100507.81;4068548;28;20051;-66
2021/06/02 03:43:20;;;;;;;9.00;5.65;;;17.20;99.90;;;16.99;100.00;100510.91;4104396;28;20141;-66
2021/06/02 03:45:54;;;;;;;8.68;5.30;;;17.20;99.90;;;16.88;100.00;100514.13;4087076;28;20062;-66
2021/06/02 03:48:32;;;;;;;5.57;5.07;;;17.10;99.90;;;16.90;100.00;100510.28;4103198;28;20066;-66
2021/06/02 03:50:43;;;;;;;9.23;5.78;;;17.10;99.90;;;16.93;100.00;100511.72;4103946;28;20038;-66
2021/06/02 03:52:49;;;;;;;7.75;5.88;;;17.10;99.90;;;16.91;100.00;100511.91;4104325;28;20070;-66
2021/06/02 03:55:04;;;;;;;7.47;5.03;;;17.10;99.90;;;16.83;100.00;100500.63;4104163;28;20031;-66
2021/06/02 03:57:34;;;;;;;8.95;6.13;;;17.00;99.90;;;16.90;100.00;100517.44;4104044;28;20050;-66
2021/06/02 04:00:00;;;;;;;6.80;5.13;;;17.10;99.90;;;16.92;100.00;100520.72;4102970;28;20031;-66
2021/06/02 04:02:40;;;;;;;9.70;5.90;;;17.00;99.90;;;16.94;100.00;100529.31;4103732;28;20032;-66
2021/06/02 04:05:26;;;;;;;6.55;5.30;;;17.00;99.90;;;16.84;100.00;100518.25;4104204;28;20031;-66
2021/06/02 04:07:45;;;;;;;5.40;4.55;;;17.00;99.90;;;16.82;100.00;100526.44;4102754;28;20042;-66
2021/06/02 04:10:12;;;;;;;7.97;5.72;;;17.00;99.90;;;16.81;100.00;100531.97;4112609;28;20027;-66
2021/06/02 04:12:36;;;;;;;6.88;4.68;;;17.00;99.90;;;16.83;100.00;100535.25;4109852;28;20641;-66
2021/06/02 04:14:42;;;;;;;8.15;5.25;;;17.00;99.90;;;16.86;100.00;100540.19;4119928;28;20466;-66
2021/06/02 04:16:44;;;;;;;13.70;5.95;;;17.00;99.90;;;16.89;100.00;100537.09;4118684;28;20030;-66
2021/06/02 04:18:47;;;;;;;9.30;5.30;;;17.00;99.90;;;16.84;100.00;100542.22;4119877;28;20037;-66
2021/06/02 04:20:50;;;;;;;4.47;3.95;;;17.00;99.90;;;16.81;100.00;100545.28;4119713;28;20035;-66
2021/06/02 04:22:51;;;;;;;9.63;6.22;;;17.00;99.90;;;16.79;100.00;100536.66;4119719;28;20038;-66
2021/06/02 04:24:53;;;;;;;8.52;5.47;;;17.00;99.90;;;16.82;100.00;100542.41;4118794;28;20026;-66
2021/06/02 04:26:55;;;;;;;9.50;5.28;;;17.00;99.90;;;16.86;100.00;100543.66;4118877;28;20123;-66
2021/06/02 04:28:59;;;;;;;6.22;4.97;;;17.00;99.90;;;16.87;100.00;100540.00;4118811;28;20091;-66
2021/06/02 04:31:20;;;;;;;10.27;5.75;;;17.00;99.90;;;16.83;100.00;100543.25;4119626;28;20039;-66
2021/06/02 04:33:26;;;;;;;7.78;4.80;;;17.00;99.90;;;16.82;100.00;100554.91;4119871;28;20034;-66
2021/06/02 04:35:28;;;;;;;9.95;5.90;;;17.00;99.90;;;16.81;100.00;100554.13;4118479;28;20134;-66
2021/06/02 04:37:29;;;;;;;9.15;5.22;;;17.00;99.90;;;16.87;100.00;100552.47;4118489;28;20039;-66
2021/06/02 04:39:31;;;;;;;8.98;5.38;;;17.10;99.90;;;16.90;100.00;100552.09;4118598;28;20041;-66
2021/06/02 04:41:33;;;;;;;9.68;5.32;;;17.10;99.90;;;16.95;100.00;100547.78;4119807;28;20512;-66
2021/06/02 04:43:38;;;;;;;7.25;4.72;;;17.20;99.90;;;16.95;100.00;100547.78;4118548;28;20034;-66
2021/06/02 04:45:58;;;;;;;9.88;5.43;;;17.20;99.90;;;17.07;100.00;100548.00;4119711;28;20094;-66
2021/06/02 04:48:00;;;;;;;8.73;4.65;;;17.30;99.90;;;17.06;100.00;100549.03;4119762;28;20041;-66
2021/06/02 04:50:22;;;;;;;11.35;6.50;;;17.30;99.90;;;17.11;100.00;100549.25;4118744;28;20046;-66
2021/06/02 04:52:32;;;;;;;8.27;6.60;;;17.30;99.90;;;17.39;100.00;100554.38;4103694;28;20032;-66
2021/06/02 04:55:03;;;;;;;11.57;5.57;;;17.50;99.90;;;17.31;100.00;100551.94;4103549;28;20031;-66
2021/06/02 04:57:48;;;;;;;13.70;7.57;;;17.50;99.90;;;17.39;100.00;100549.88;4103666;28;20492;-66
2021/06/02 05:00:12;;;;;;;14.05;7.88;;;17.60;99.90;;;17.41;100.00;100547.81;4103680;28;20039;-66
2021/06/02 05:02:39;;;;;;;9.85;6.28;;;17.70;99.90;;;17.42;100.00;100546.81;4103747;28;20035;-66
2021/06/02 05:05:33;;;;;;;11.52;7.45;;;17.70;99.90;;;17.45;100.00;100554.41;4067837;28;20078;-66
2021/06/02 05:07:59;;;;;;;9.77;6.82;;;17.70;99.90;;;17.57;100.00;100558.13;4065750;28;20077;-66
2021/06/02 05:10:27;;;;;;;10.82;7.28;;;17.80;99.90;;;17.55;100.00;100549.50;4115198;28;20045;-66
2021/06/02 05:13:14;;;;;;;11.65;7.95;;;17.90;99.90;;;17.55;100.00;100560.19;4121526;28;20030;-65
2021/06/02 05:15:46;;;;;;;11.48;7.03;;;17.90;99.90;;;17.61;100.00;100566.53;4119765;28;20033;-66
2021/06/02 05:18:30;;;;;;;9.52;7.30;;;17.90;99.90;;;17.55;100.00;100565.50;4119149;28;20027;-66
2021/06/02 05:24:00;;;;;;;13.15;8.68;;;17.90;99.90;;;17.68;100.00;100565.50;4101047;28;20081;-66
2021/06/02 05:26:42;;;;;;;11.93;8.35;;;18.00;99.90;;;17.71;100.00;100568.78;4122329;28;20057;-66
2021/06/02 05:29:14;;;;;;;13.10;8.88;;;18.10;99.90;;;17.68;100.00;100570.81;4121543;28;20030;-66
2021/06/02 05:31:36;;;;;;;12.27;8.88;;;18.10;99.90;;;17.71;100.00;100568.78;4122412;28;20027;-66
2021/06/02 05:34:01;;;;;;;12.50;9.10;;;18.10;99.90;;;17.62;100.00;100560.19;4122158;28;20031;-66
2021/06/02 05:36:20;;;;;;;;;;;18.10;99.90;;;17.57;100.00;100563.44;4122365;28;20230;-66
2021/06/02 05:39:04;;;;;;;13.07;8.70;;;18.10;99.90;;;17.62;100.00;100568.19;4122186;28;20000;-66
2021/06/02 05:41:37;;;;;;;11.82;9.02;;;18.10;99.90;;;17.67;100.00;100571.88;4121254;28;20046;-66
2021/06/02 05:44:21;;;;;;;14.68;9.48;;;18.10;99.90;;;17.82;100.00;100570.81;4091767;28;20051;-66
2021/06/02 05:46:24;;;;;;;16.02;8.90;;;18.10;99.90;;;17.83;99.74;100569.81;4122083;28;20023;-66
2021/06/02 05:49:07;;;;;;;13.70;9.13;;;18.20;99.90;;;17.72;99.68;100581.09;4122061;28;20037;-66
2021/06/02 05:51:39;;;;;;;15.05;8.27;;;18.30;99.90;;;17.70;100.00;100578.63;4121881;28;20026;-66
2021/06/02 05:54:23;;;;;;;14.80;9.52;;;18.30;99.90;;;17.67;100.00;100573.72;4121773;28;20176;-66
2021/06/02 05:57:02;;;;;;;11.73;9.05;;;18.30;99.90;;;17.87;99.35;100579.03;4121954;28;20027;-66
2021/06/02 05:59:24;;;;;;;15.35;8.82;;;18.30;99.90;;;17.84;98.92;100574.09;4121965;28;20026;-66
2021/06/02 06:02:25;;;;;;;13.55;9.05;;;18.30;99.90;;;17.83;98.74;100577.81;4121830;28;20039;-66
2021/06/02 06:05:36;;;;;;;14.77;8.02;;;18.40;99.90;;;17.86;98.42;100593.41;4120748;28;20035;-66
2021/06/02 06:08:14;;;;;;;14.55;8.48;;;18.40;99.90;;;17.64;99.36;100582.94;4110410;28;20043;-66
2021/06/02 06:11:10;;;;;;;13.82;9.77;;;18.30;99.90;;;17.77;98.46;100597.31;4119191;28;20022;-67
2021/06/02 06:13:42;;;;;;;10.32;8.13;;;18.30;99.90;;;17.79;99.39;100605.94;4121452;28;20030;-66
2021/06/02 06:16:36;;;;;;;13.80;9.68;;;18.30;99.90;;;17.83;98.25;100599.16;4119802;28;20041;-66
2021/06/02 06:19:43;;;;;;;12.75;9.50;;;18.30;99.90;;;17.80;97.76;100608.38;4056558;29;20100;-67
2021/06/02 06:22:17;;;;;;;13.05;9.65;;;18.40;99.90;;;17.71;98.74;100606.13;4117295;28;20122;-66
2021/06/02 06:24:48;;;;;;;14.40;9.13;;;18.30;99.90;;;17.76;98.74;100609.00;4121356;28;20027;-66
2021/06/02 06:27:10;;;;;;;13.82;9.68;;;18.30;99.90;;;17.72;98.43;100613.09;4110894;28;20043;-66
2021/06/02 06:29:34;;;;;;;15.50;9.20;;;18.30;99.90;;;17.72;98.76;100605.91;4121311;28;20078;-66
2021/06/02 06:31:41;;;;;;;14.50;8.98;;;18.30;99.90;;;17.65;99.58;100607.78;4121038;28;20570;-66
2021/06/02 06:33:43;;;;;;;12.45;9.88;;;18.30;99.90;;;17.71;99.39;100616.81;4119954;28;20053;-66
2021/06/02 06:35:47;;;;;;;16.50;11.00;;;18.20;99.90;;;17.67;98.61;100611.88;4119677;28;20033;-67
2021/06/02 06:37:52;;;;;;;12.63;10.43;;;18.20;99.90;;;17.64;98.51;100612.28;4119759;28;20027;-67
2021/06/02 06:39:59;;;;;;;12.27;10.20;;;18.20;99.90;;;17.61;98.64;100612.72;4119984;28;20027;-67
2021/06/02 06:42:02;;;;;;;17.35;11.65;;;18.20;99.90;;;17.52;99.08;100608.56;4119776;28;20098;-67
2021/06/02 06:44:06;;;;;;;14.95;10.32;;;18.10;99.90;;;17.47;99.40;100607.53;4115674;28;20098;-67
2021/06/02 06:46:08;;;;;;;19.45;11.38;;;18.10;99.90;;;17.49;99.83;100614.31;4119284;28;20027;-66
2021/06/02 06:48:22;;;;;;;19.27;12.95;;;18.10;99.90;;;17.38;100.00;100612.22;4112982;28;20407;-66
2021/06/02 06:50:23;;;;;;;17.13;12.35;;;18.10;99.90;;;17.52;100.00;100619.22;4118414;28;20090;-66
2021/06/02 06:52:26;;;;;;;15.68;12.63;;;18.10;99.90;;;17.53;99.97;100615.53;4111159;28;20124;-66
2021/06/02 06:54:29;;;;;;;17.02;12.10;;;18.10;99.90;;;17.57;99.81;100616.78;4116516;28;20035;-66
2021/06/02 06:56:31;;;;;;;16.90;11.70;;;18.20;99.90;;;17.59;100.00;100622.75;4119043;28;20039;-66
2021/06/02 06:58:33;;;;;;;18.13;12.60;;;18.20;99.90;;;17.68;100.00;100626.84;4118318;28;20055;-66
2021/06/02 07:00:35;;;;;;;16.30;11.73;;;18.20;99.90;;;17.71;100.00;100628.31;4117989;28;20027;-66
2021/06/02 07:02:42;;;;;;;20.30;11.25;;;18.20;99.90;;;17.74;99.85;100619.88;4116696;28;20023;-66
2021/06/02 07:04:44;;;;;;;15.40;11.48;;;18.30;99.90;;;17.82;100.00;100629.53;4117632;28;20023;-66
2021/06/02 07:06:47;;;;;;;15.75;12.15;;;18.30;99.90;;;17.94;99.15;100628.72;4102710;28;20050;-66
2021/06/02 07:08:50;;;;;;;15.73;11.90;;;18.40;99.90;;;17.92;98.49;100635.28;4120513;28;20062;-65
2021/06/02 07:10:51;;;;;;;17.30;12.10;;;18.50;99.90;;;17.80;98.16;100629.72;4119296;28;20121;-66
2021/06/02 07:12:52;;;;;;;14.77;11.10;;;18.40;99.90;;;17.84;98.13;100648.81;4119001;28;20022;-66
2021/06/02 07:14:54;;;;;;;20.17;12.45;;;18.40;99.90;;;17.79;97.76;100641.44;4118718;28;20038;-65
2021/06/02 07:17:05;;;;;;;16.88;11.90;;;18.40;99.90;;;17.71;98.42;100649.66;4119218;28;20062;-66
2021/06/02 07:19:08;;;;;;;18.15;12.07;;;18.40;99.90;;;17.71;98.80;100646.16;4118901;28;20038;-66
2021/06/02 07:21:09;;;;;;;17.50;13.05;;;18.30;99.90;;;17.52;99.46;100653.09;4120034;28;20062;-67
2021/06/02 07:23:10;;;;;;;23.33;13.57;;;18.30;99.90;;;17.62;99.31;100654.34;4124791;28;20642;-67
2021/06/02 07:25:17;;;;;;;18.45;14.30;;;18.30;99.90;;;17.64;98.70;100649.66;4118751;28;20023;-67
2021/06/02 07:27:18;;;;;;;18.80;13.25;;;18.30;99.90;;;17.66;99.78;100658.25;4120041;28;20031;-66
2021/06/02 07:29:19;;;;;;;19.65;13.38;;;18.20;99.90;;;17.67;99.43;100667.09;4119930;28;20117;-67
2021/06/02 07:31:20;;;;;;;20.13;13.88;;;18.20;99.90;;;17.64;100.00;100671.00;4120095;28;20030;-66
2021/06/02 07:33:21;;;;;;;18.60;12.50;;;18.20;99.90;;;17.76;100.00;100670.38;4117625;28;20031;-67
2021/06/02 07:35:23;;;;;;;20.13;13.70;;;18.20;99.90;;;17.54;100.00;100654.53;4119788;28;20503;-69
2021/06/02 07:37:24;;;;;;;19.13;13.25;;;18.30;99.90;;;17.61;100.00;100666.06;4118829;28;20129;-68
2021/06/02 07:39:25;;;;;;;15.27;11.57;;;18.30;99.90;;;17.47;100.00;100675.00;4119187;28;20106;-68
2021/06/02 07:41:27;;;;;;;15.73;11.50;;;18.20;99.90;;;17.63;100.00;100679.19;4118835;28;20023;-68
2021/06/02 07:43:28;;;;;;;15.93;10.60;;;18.20;99.90;;;17.65;100.00;100669.94;4118770;28;20030;-68
2021/06/02 07:45:29;;;;;;;13.35;9.50;;;18.20;99.90;;;17.57;100.00;100669.31;4120166;28;20037;-68
2021/06/02 07:47:30;;;;;;;12.50;9.35;;;18.20;99.90;;;17.61;100.00;100662.56;4119052;28;20023;-68
2021/06/02 07:49:30;;;;;;;12.88;9.77;;;18.20;99.90;;;17.69;100.00;100683.69;4120362;28;20030;-68
2021/06/02 07:51:32;;;;;;;12.65;9.75;;;18.30;99.90;;;17.73;100.00;100689.47;4119935;28;20046;-69
2021/06/02 07:53:33;;;;;;;12.73;10.20;;;18.30;99.90;;;17.75;100.00;100684.72;4119903;28;20027;-69
2021/06/02 07:55:34;;;;;;;13.25;9.75;;;18.30;99.90;;;17.83;100.00;100692.56;4120087;28;20023;-69
2021/06/02 07:57:35;;;;;;;12.35;9.88;;;18.40;99.90;;;17.87;99.97;100693.78;4120022;28;20038;-69
2021/06/02 07:59:36;;;;;;;11.88;9.45;;;18.40;99.90;;;17.86;100.00;100684.94;4119912;28;20022;-69
2021/06/02 08:01:37;;;;;;;13.07;10.15;;;18.40;99.90;;;17.85;100.00;100699.31;4134619;28;20472;-68
2021/06/02 08:03:38;;;;;;;11.55;9.57;;;18.50;99.90;;;17.86;100.00;100689.47;4119661;28;20030;-68
2021/06/02 08:05:39;;;;;;;11.82;9.13;;;18.50;99.90;;;17.85;100.00;100698.50;4119708;28;20038;-67
2021/06/02 08:07:44;;;;;;;12.60;9.25;;;18.50;99.90;;;17.83;100.00;100693.34;4119752;28;20043;-69
2021/06/02 08:09:46;;;;;;;11.27;9.30;;;18.40;99.90;;;17.71;100.00;100696.84;4109988;28;20033;-69
2021/06/02 08:11:48;;;;;;;15.82;11.10;;;18.40;99.90;;;17.73;100.00;100695.63;4102597;28;20031;-67
2021/06/02 08:13:49;;;;;;;15.52;10.38;;;18.40;99.90;;;17.77;100.00;100698.72;4102439;28;20035;-67
2021/06/02 08:15:50;;;;;;;14.02;9.73;;;18.40;99.90;;;17.77;100.00;100712.06;4103658;28;20032;-67
2021/06/02 08:17:51;;;;;;;15.05;10.40;;;18.40;99.90;;;17.68;100.00;100706.09;4103610;28;20038;-67
2021/06/02 08:19:52;;;;;;;12.63;9.45;;;18.40;99.90;;;17.74;100.00;100707.13;4103699;28;20031;-67
2021/06/02 08:21:53;;;;;;;15.27;9.60;;;18.30;99.90;;;17.72;100.00;100709.16;4108996;28;20078;-66
2021/06/02 08:23:54;;;;;;;11.77;8.60;;;18.40;99.90;;;17.66;100.00;100713.44;4119424;28;20026;-67
2021/06/02 08:25:55;;;;;;;12.23;7.55;;;18.30;99.90;;;17.67;100.00;100723.94;4119696;28;20027;-67
2021/06/02 08:27:56;;;;;;;12.02;7.82;;;18.30;99.90;;;17.62;100.00;100731.69;4119381;28;20021;-67
2021/06/02 08:29:57;;;;;;;10.75;7.55;;;18.30;99.90;;;17.58;100.00;100722.47;4119752;28;20027;-67
2021/06/02 08:31:59;;;;;;;10.32;8.15;;;18.30;99.90;;;17.57;100.00;100728.00;4119495;28;20023;-67
2021/06/02 08:34:01;;;;;;;12.50;9.23;;;18.30;99.90;;;17.52;100.00;100731.25;4119396;28;20023;-67
2021/06/02 08:36:02;;;;;;;12.23;9.00;;;18.30;99.90;;;17.57;100.00;100736.84;4119264;28;20561;-67
2021/06/02 08:38:03;;;;;;;13.82;8.65;;;18.20;99.90;;;17.51;100.00;100734.09;4119748;28;20039;-67
2021/06/02 08:40:06;;;;;;;12.60;8.95;;;18.20;99.90;;;17.29;100.00;100724.63;4118591;28;20081;-67
2021/06/02 08:42:08;;;;;;;18.08;10.55;;;18.20;99.90;;;17.41;100.00;100745.16;4119599;28;20066;-67
2021/06/02 08:44:09;;;;;;;17.13;9.75;;;18.20;99.90;;;17.43;100.00;100758.31;4119559;28;20027;-68
2021/06/02 08:46:10;;;;;;;16.98;9.82;;;18.20;99.90;;;17.40;100.00;100756.03;4120559;28;20041;-67
2021/06/02 08:48:12;;;;;;;14.75;9.27;;;18.10;99.90;;;17.39;100.00;100760.53;4121395;28;20023;-67
2021/06/02 08:50:16;;;;;;;11.18;8.93;;;18.10;99.90;;;17.40;100.00;100764.84;4121115;28;20089;-67
2021/06/02 08:52:17;;;;;;;10.10;8.73;;;18.10;99.90;;;17.36;100.00;100773.44;4122402;28;20026;-67
2021/06/02 08:54:18;;;;;;;11.80;8.85;;;18.10;99.90;;;17.36;100.00;100776.94;4122353;28;20046;-67
2021/06/02 08:56:19;;;;;;;13.00;8.77;;;18.10;99.90;;;17.36;100.00;100782.28;4122068;28;20509;-67
2021/06/02 08:58:22;;;;;;;13.55;9.82;;;18.00;99.90;;;17.37;100.00;100778.59;4122000;28;20038;-67
2021/06/02 09:00:25;;;;;;;15.95;10.50;;;18.10;99.90;;;17.29;100.00;100793.94;4122077;28;20031;-67
2021/06/02 09:02:26;;;;;;;12.13;9.60;;;18.00;99.90;;;17.27;99.98;100786.13;4122561;28;20418;-67
2021/06/02 09:04:27;;;;;;;19.00;11.30;;;18.00;99.90;;;17.08;99.73;100787.66;4121852;28;20027;-68
2021/06/02 09:06:29;;;;;;;17.02;10.75;;;17.90;99.90;;;16.95;100.00;100789.44;4121491;28;20862;-67
2021/06/02 09:08:30;;;;;;;15.95;11.63;;;17.80;99.90;;;16.97;100.00;100793.56;4120864;28;20034;-68
2021/06/02 09:10:42;;;;;;;17.60;11.43;;;17.80;99.90;;;16.99;98.44;100794.16;4121990;28;20035;-68
2021/06/02 09:12:44;;;;;;;20.00;12.98;;;17.70;99.90;;;17.04;98.85;100801.59;4121917;28;20026;-68
2021/06/02 09:14:45;;;;;;;16.95;12.00;;;17.70;99.90;;;16.99;98.74;100809.38;4121516;28;20038;-69
2021/06/02 09:16:56;;;;;;;17.92;12.23;;;17.70;99.90;;;17.06;98.11;100805.72;4121734;28;20027;-68
2021/06/02 09:19:00;;;;;;;16.75;11.55;;;17.80;99.90;;;17.18;97.28;100811.31;4121880;28;20042;-67
2021/06/02 09:21:04;;;;;;;18.02;11.98;;;17.80;99.90;;;17.20;97.07;100801.28;4121838;28;20031;-67
2021/06/02 09:23:38;;;;;;;15.05;10.07;;;17.90;99.90;;;17.35;95.65;100806.47;4121825;28;20498;-67
2021/06/02 09:25:39;;;;;;;15.67;11.17;;;18.00;99.90;;;17.29;95.47;100802.78;4121386;28;20030;-67